createdAt,value
2017-06-10T00:00:08.183Z,85.47
2017-06-10T00:01:07.873Z,85.68
2017-06-10T00:02:07.486Z,85.61
2017-06-10T00:03:08.261Z,86.33
2017-06-10T00:04:08.256Z,87.02
2017-06-10T00:05:07.447Z,86.57
2017-06-10T00:06:08.104Z,86.24
2017-06-10T00:07:07.732Z,87.38
2017-06-10T00:08:08.461Z,87.08
2017-06-10T00:09:08.056Z,87.45
2017-06-10T00:10:07.663Z,87.72
2017-06-10T00:11:08.416Z,87.27
2017-06-10T00:12:08.006Z,87.00
2017-06-10T00:13:07.729Z,86.94
2017-06-10T00:14:08.264Z,87.16
2017-06-10T00:15:07.920Z,87.44
2017-06-10T00:16:07.552Z,86.86
2017-06-10T00:17:08.268Z,86.68
2017-06-10T00:18:08.073Z,90.86
2017-06-10T00:19:07.584Z,86.74
2017-06-10T00:20:07.442Z,86.54
2017-06-10T00:21:08.121Z,86.28
2017-06-10T00:22:08.928Z,86.34
2017-06-10T00:23:07.468Z,86.93
2017-06-10T00:24:08.106Z,86.72
2017-06-10T00:25:07.765Z,86.72
2017-06-10T00:26:07.428Z,86.67
2017-06-10T00:27:08.113Z,86.52
2017-06-10T00:28:08.812Z,86.88
2017-06-10T00:29:08.364Z,86.89
2017-06-10T00:30:07.990Z,86.94
2017-06-10T00:31:08.745Z,86.79
2017-06-10T00:32:08.319Z,86.96
2017-06-10T00:33:07.948Z,87.08
2017-06-10T00:34:07.634Z,87.11
2017-06-10T00:35:08.284Z,86.99
2017-06-10T00:36:07.938Z,86.96
2017-06-10T00:37:07.604Z,87.00
2017-06-10T00:38:08.289Z,86.99
2017-06-10T00:39:07.959Z,87.02
2017-06-10T00:40:07.589Z,87.39
2017-06-10T00:41:08.211Z,87.31
2017-06-10T00:42:07.879Z,87.20
2017-06-10T00:43:07.517Z,87.43
2017-06-10T00:44:08.204Z,87.38
2017-06-10T00:45:07.807Z,86.99
2017-06-10T00:46:07.937Z,86.98
2017-06-10T00:47:09.167Z,87.03
2017-06-10T00:48:07.739Z,87.06
2017-06-10T00:49:07.442Z,87.23
2017-06-10T00:50:08.148Z,87.35
2017-06-10T00:51:07.834Z,87.31
2017-06-10T00:52:07.519Z,87.39
2017-06-10T00:53:08.153Z,87.27
2017-06-10T00:54:07.820Z,87.23
2017-06-10T00:55:07.415Z,87.31
2017-06-10T00:56:08.078Z,87.48
2017-06-10T00:57:07.884Z,87.34
2017-06-10T00:58:07.408Z,87.46
2017-06-10T00:59:08.056Z,87.23
2017-06-10T01:00:07.740Z,87.25
2017-06-10T01:01:07.410Z,87.35
2017-06-10T01:02:08.061Z,87.26
2017-06-10T01:03:07.734Z,87.35
2017-06-10T01:04:07.485Z,87.20
2017-06-10T01:05:08.068Z,87.15
2017-06-10T01:06:07.793Z,87.09
2017-06-10T01:07:07.429Z,87.02
2017-06-10T01:08:08.081Z,86.99
2017-06-10T01:09:07.771Z,86.85
2017-06-10T01:10:08.390Z,86.74
2017-06-10T01:11:08.041Z,86.82
2017-06-10T01:12:07.822Z,86.96
2017-06-10T01:13:08.401Z,86.80
2017-06-10T01:14:09.183Z,86.79
2017-06-10T01:15:07.694Z,86.70
2017-06-10T01:16:08.342Z,86.95
2017-06-10T01:17:09.021Z,86.94
2017-06-10T01:18:07.807Z,87.07
2017-06-10T01:19:07.462Z,87.06
2017-06-10T01:20:08.212Z,87.08
2017-06-10T01:21:07.818Z,87.31
2017-06-10T01:22:07.499Z,87.22
2017-06-10T01:23:08.196Z,87.33
2017-06-10T01:24:07.779Z,87.50
2017-06-10T01:25:07.465Z,87.36
2017-06-10T01:26:08.082Z,87.39
2017-06-10T01:27:07.814Z,87.41
2017-06-10T01:28:07.375Z,87.59
2017-06-10T01:29:08.112Z,87.36
2017-06-10T01:30:07.820Z,87.26
2017-06-10T01:31:07.429Z,87.21
2017-06-10T01:32:08.081Z,87.50
2017-06-10T01:33:07.762Z,87.56
2017-06-10T01:34:07.448Z,87.65
2017-06-10T01:35:09.254Z,87.71
2017-06-10T01:36:07.787Z,87.80
2017-06-10T01:37:07.449Z,88.02
2017-06-10T01:38:08.086Z,88.03
2017-06-10T01:39:07.746Z,87.99
2017-06-10T01:40:07.395Z,88.12
2017-06-10T01:41:08.113Z,88.16
2017-06-10T01:42:07.772Z,88.02
2017-06-10T01:43:08.353Z,87.91
2017-06-10T01:44:08.002Z,87.87
2017-06-10T01:45:07.654Z,87.94
2017-06-10T01:46:08.373Z,88.05
2017-06-10T01:47:08.081Z,88.21
2017-06-10T01:48:07.681Z,88.28
2017-06-10T01:49:08.339Z,88.17
2017-06-10T01:50:08.176Z,88.01
2017-06-10T01:51:08.975Z,88.14
2017-06-10T01:52:07.488Z,88.22
2017-06-10T01:53:08.139Z,88.25
2017-06-10T01:54:07.783Z,88.11
2017-06-10T01:55:07.472Z,88.00
2017-06-10T01:56:08.162Z,88.28
2017-06-10T01:57:07.984Z,88.50
2017-06-10T01:58:07.429Z,88.36
2017-06-10T01:59:08.103Z,88.27
2017-06-10T02:00:07.772Z,88.29
2017-06-10T02:01:07.439Z,88.32
2017-06-10T02:02:08.122Z,88.54
2017-06-10T02:03:07.777Z,88.78
2017-06-10T02:04:07.420Z,88.62
2017-06-10T02:05:09.170Z,88.50
2017-06-10T02:06:07.767Z,88.31
2017-06-10T02:07:07.458Z,88.27
2017-06-10T02:08:08.075Z,88.16
2017-06-10T02:09:08.225Z,88.13
2017-06-10T02:10:08.401Z,88.36
2017-06-10T02:11:08.004Z,88.36
2017-06-10T02:12:07.738Z,88.49
2017-06-10T02:13:08.330Z,88.55
2017-06-10T02:14:07.972Z,88.68
2017-06-10T02:15:07.644Z,88.91
2017-06-10T02:16:19.977Z,88.83
2017-06-10T02:17:08.011Z,89.02
2017-06-10T02:18:07.684Z,88.72
2017-06-10T02:19:08.397Z,88.83
2017-06-10T02:20:08.153Z,89.02
2017-06-10T02:21:07.826Z,89.07
2017-06-10T02:22:07.551Z,89.56
2017-06-10T02:23:08.159Z,89.80
2017-06-10T02:24:07.887Z,89.85
2017-06-10T02:25:07.508Z,89.66
2017-06-10T02:26:08.145Z,89.31
2017-06-10T02:27:07.872Z,89.30
2017-06-10T02:28:07.499Z,89.31
2017-06-10T02:29:08.189Z,89.33
2017-06-10T02:30:08.907Z,89.21
2017-06-10T02:31:07.529Z,89.37
2017-06-10T02:32:09.302Z,89.26
2017-06-10T02:33:07.823Z,89.15
2017-06-10T02:34:07.462Z,89.28
2017-06-10T02:35:08.142Z,89.36
2017-06-10T02:36:07.792Z,89.45
2017-06-10T02:37:07.439Z,89.64
2017-06-10T02:38:08.143Z,89.43
2017-06-10T02:39:07.745Z,89.45
2017-06-10T02:40:07.446Z,89.29
2017-06-10T02:41:08.087Z,89.58
2017-06-10T02:42:09.268Z,89.61
2017-06-10T02:43:07.863Z,89.46
2017-06-10T02:44:07.490Z,89.50
2017-06-10T02:45:08.148Z,89.56
2017-06-10T02:46:07.803Z,89.62
2017-06-10T02:47:07.447Z,89.42
2017-06-10T02:48:08.152Z,89.35
2017-06-10T02:49:07.745Z,89.36
2017-06-10T02:50:07.557Z,89.62
2017-06-10T02:51:08.272Z,89.73
2017-06-10T02:52:07.945Z,89.71
2017-06-10T02:53:07.661Z,89.90
2017-06-10T02:54:08.309Z,89.75
2017-06-10T02:55:07.939Z,89.54
2017-06-10T02:56:07.559Z,89.64
2017-06-10T02:57:08.289Z,89.69
2017-06-10T02:58:07.914Z,89.83
2017-06-10T02:59:07.877Z,89.99
2017-06-10T03:00:08.212Z,90.17
2017-06-10T03:01:08.911Z,90.12
2017-06-10T03:02:07.587Z,89.86
2017-06-10T03:03:08.259Z,89.75
2017-06-10T03:04:07.866Z,89.73
2017-06-10T03:05:07.522Z,89.69
2017-06-10T03:06:08.204Z,89.54
2017-06-10T03:07:07.817Z,89.37
2017-06-10T03:08:07.469Z,89.45
2017-06-10T03:09:08.097Z,89.48
2017-06-10T03:10:07.752Z,89.71
2017-06-10T03:11:07.405Z,89.88
2017-06-10T03:12:08.132Z,89.85
2017-06-10T03:13:07.771Z,89.88
2017-06-10T03:14:07.454Z,89.85
2017-06-10T03:15:08.114Z,89.92
2017-06-10T03:16:07.739Z,89.83
2017-06-10T03:17:07.507Z,89.85
2017-06-10T03:18:08.278Z,89.85
2017-06-10T03:19:07.957Z,89.78
2017-06-10T03:20:07.710Z,89.95
2017-06-10T03:21:08.278Z,89.95
2017-06-10T03:22:07.949Z,89.85
2017-06-10T03:23:07.690Z,89.88
2017-06-10T03:24:08.301Z,89.87
2017-06-10T03:25:07.930Z,89.78
2017-06-10T03:26:07.626Z,89.84
2017-06-10T03:27:08.300Z,89.90
2017-06-10T03:28:08.097Z,89.78
2017-06-10T03:29:07.619Z,89.64
2017-06-10T03:30:08.271Z,89.61
2017-06-10T03:31:07.889Z,89.65
2017-06-10T03:32:07.597Z,89.73
2017-06-10T03:33:08.298Z,89.79
2017-06-10T03:34:07.928Z,89.72
2017-06-10T03:35:07.556Z,89.73
2017-06-10T03:36:08.193Z,89.66
2017-06-10T03:37:07.830Z,89.64
2017-06-10T03:38:07.550Z,89.69
2017-06-10T03:39:08.211Z,89.75
2017-06-10T03:40:07.837Z,89.72
2017-06-10T03:41:07.496Z,89.79
2017-06-10T03:42:08.220Z,89.85
2017-06-10T03:43:08.915Z,89.77
2017-06-10T03:44:08.588Z,89.92
2017-06-10T03:45:08.179Z,89.85
2017-06-10T03:46:07.820Z,89.87
2017-06-10T03:47:07.473Z,89.98
2017-06-10T03:48:08.115Z,89.89
2017-06-10T03:49:07.790Z,90.02
2017-06-10T03:50:07.565Z,89.81
2017-06-10T03:51:08.225Z,89.82
2017-06-10T03:52:07.897Z,89.96
2017-06-10T03:53:07.506Z,89.87
2017-06-10T03:54:08.202Z,89.80
2017-06-10T03:55:07.844Z,90.18
2017-06-10T03:56:07.500Z,90.33
2017-06-10T03:57:08.183Z,90.35
2017-06-10T03:58:07.827Z,90.11
2017-06-10T03:59:08.553Z,90.29
2017-06-10T04:00:08.094Z,90.22
2017-06-10T04:01:07.754Z,90.34
2017-06-10T04:02:07.411Z,90.43
2017-06-10T04:03:08.070Z,90.37
2017-06-10T04:04:07.750Z,90.05
2017-06-10T04:05:07.475Z,89.77
2017-06-10T04:06:08.114Z,89.70
2017-06-10T04:07:07.910Z,89.76
2017-06-10T04:08:07.441Z,89.85
2017-06-10T04:09:08.148Z,89.79
2017-06-10T04:10:07.805Z,90.02
2017-06-10T04:11:07.432Z,90.10
2017-06-10T04:12:08.154Z,90.08
2017-06-10T04:13:07.798Z,89.88
2017-06-10T04:14:07.445Z,89.80
2017-06-10T04:15:08.148Z,89.61
2017-06-10T04:16:07.828Z,89.74
2017-06-10T04:17:07.507Z,89.69
2017-06-10T04:18:08.200Z,89.73
2017-06-10T04:19:07.856Z,89.79
2017-06-10T04:20:07.690Z,89.91
2017-06-10T04:21:08.286Z,89.98
2017-06-10T04:22:07.997Z,90.08
2017-06-10T04:23:07.620Z,90.07
2017-06-10T04:24:08.228Z,89.96
2017-06-10T04:25:10.591Z,90.32
2017-06-10T04:26:07.418Z,90.41
2017-06-10T04:27:08.114Z,90.64
2017-06-10T04:28:07.736Z,90.76
2017-06-10T04:29:07.430Z,90.72
2017-06-10T04:30:08.082Z,90.77
2017-06-10T04:31:07.804Z,90.59
2017-06-10T04:32:07.565Z,90.43
2017-06-10T04:33:08.215Z,90.49
2017-06-10T04:34:08.305Z,90.57
2017-06-10T04:35:07.950Z,90.60
2017-06-10T04:36:07.639Z,90.77
2017-06-10T04:37:08.332Z,90.77
2017-06-10T04:38:07.923Z,90.67
2017-06-10T04:39:07.607Z,90.64
2017-06-10T04:40:08.211Z,90.63
2017-06-10T04:41:07.916Z,90.63
2017-06-10T04:42:07.541Z,90.84
2017-06-10T04:43:08.251Z,90.91
2017-06-10T04:44:07.864Z,91.18
2017-06-10T04:45:07.515Z,91.38
2017-06-10T04:46:08.229Z,91.16
2017-06-10T04:47:07.855Z,90.93
2017-06-10T04:48:07.514Z,90.89
2017-06-10T04:49:08.164Z,90.87
2017-06-10T04:50:08.002Z,90.84
2017-06-10T04:51:07.734Z,90.94
2017-06-10T04:52:08.327Z,90.91
2017-06-10T04:53:07.984Z,90.79
2017-06-10T04:54:07.672Z,90.54
2017-06-10T04:55:08.317Z,90.17
2017-06-10T04:56:08.095Z,90.17
2017-06-10T04:57:07.681Z,89.88
2017-06-10T04:58:09.456Z,90.11
2017-06-10T04:59:07.994Z,90.28
2017-06-10T05:00:08.741Z,90.37
2017-06-10T05:01:08.379Z,90.34
2017-06-10T05:02:08.008Z,90.09
2017-06-10T05:03:07.670Z,90.12
2017-06-10T05:04:08.340Z,90.23
2017-06-10T05:05:07.972Z,90.36
2017-06-10T05:06:07.624Z,90.27
2017-06-10T05:07:08.249Z,90.84
2017-06-10T05:08:07.912Z,91.06
2017-06-10T05:09:07.598Z,90.81
2017-06-10T05:10:08.243Z,90.67
2017-06-10T05:11:07.935Z,90.76
2017-06-10T05:12:07.507Z,90.78
2017-06-10T05:13:08.160Z,90.91
2017-06-10T05:14:07.917Z,91.16
2017-06-10T05:15:07.477Z,90.79
2017-06-10T05:16:08.188Z,90.75
2017-06-10T05:17:07.928Z,90.89
2017-06-10T05:18:07.664Z,90.94
2017-06-10T05:19:08.361Z,90.90
2017-06-10T05:20:08.123Z,90.76
2017-06-10T05:21:07.797Z,90.77
2017-06-10T05:22:07.386Z,90.98
2017-06-10T05:23:08.054Z,91.00
2017-06-10T05:24:07.669Z,90.96
2017-06-10T05:25:08.338Z,90.67
2017-06-10T05:26:08.033Z,90.86
2017-06-10T05:27:07.660Z,90.67
2017-06-10T05:28:08.274Z,90.63
2017-06-10T05:29:09.033Z,90.61
2017-06-10T05:30:07.618Z,90.52
2017-06-10T05:31:09.390Z,90.53
2017-06-10T05:32:07.903Z,90.60
2017-06-10T05:33:07.542Z,90.46
2017-06-10T05:34:08.250Z,90.24
2017-06-10T05:35:07.842Z,90.07
2017-06-10T05:36:07.517Z,90.27
2017-06-10T05:37:08.204Z,90.33
2017-06-10T05:38:07.852Z,90.42
2017-06-10T05:39:07.517Z,90.46
2017-06-10T05:40:08.214Z,90.77
2017-06-10T05:41:07.918Z,90.54
2017-06-10T05:42:07.624Z,90.58
2017-06-10T05:43:08.251Z,90.44
2017-06-10T05:44:08.005Z,90.32
2017-06-10T05:45:07.580Z,89.95
2017-06-10T05:46:08.173Z,89.49
2017-06-10T05:47:07.932Z,89.36
2017-06-10T05:48:07.476Z,89.34
2017-06-10T05:49:08.136Z,89.34
2017-06-10T05:50:07.970Z,89.29
2017-06-10T05:51:07.591Z,89.17
2017-06-10T05:52:08.301Z,88.78
2017-06-10T05:53:07.911Z,88.84
2017-06-10T05:54:07.580Z,89.01
2017-06-10T05:55:08.197Z,88.93
2017-06-10T05:56:07.840Z,88.72
2017-06-10T05:57:07.586Z,88.82
2017-06-10T05:58:08.153Z,88.75
2017-06-10T05:59:07.831Z,88.67
2017-06-10T06:00:07.525Z,88.61
2017-06-10T06:01:08.118Z,88.14
2017-06-10T06:02:07.871Z,88.30
2017-06-10T06:03:07.441Z,88.36
2017-06-10T06:04:08.086Z,88.27
2017-06-10T06:05:07.720Z,88.01
2017-06-10T06:06:07.371Z,88.31
2017-06-10T06:07:08.089Z,87.64
2017-06-10T06:08:07.707Z,87.21
2017-06-10T06:09:08.326Z,87.12
2017-06-10T06:10:07.959Z,87.32
2017-06-10T06:11:07.634Z,87.51
2017-06-10T06:12:08.315Z,87.25
2017-06-10T06:13:07.924Z,86.99
2017-06-10T06:14:08.591Z,86.89
2017-06-10T06:15:08.291Z,86.46
2017-06-10T06:16:07.934Z,86.72
2017-06-10T06:17:07.659Z,86.95
2017-06-10T06:18:08.360Z,86.95
2017-06-10T06:19:08.031Z,86.78
2017-06-10T06:20:07.728Z,86.25
2017-06-10T06:21:08.572Z,86.38
2017-06-10T06:22:08.065Z,86.49
2017-06-10T06:23:07.643Z,86.57
2017-06-10T06:24:08.305Z,86.58
2017-06-10T06:25:07.960Z,86.35
2017-06-10T06:26:07.670Z,86.47
2017-06-10T06:27:08.319Z,86.77
2017-06-10T06:28:07.935Z,86.90
2017-06-10T06:29:07.543Z,86.35
2017-06-10T06:30:08.262Z,85.84
2017-06-10T06:31:07.909Z,85.63
2017-06-10T06:32:07.642Z,84.49
2017-06-10T06:33:08.209Z,84.69
2017-06-10T06:34:07.892Z,84.64
2017-06-10T06:35:07.565Z,84.63
2017-06-10T06:36:08.187Z,84.78
2017-06-10T06:37:07.875Z,85.33
2017-06-10T06:38:07.452Z,84.99
2017-06-10T06:39:08.126Z,85.08
2017-06-10T06:40:07.784Z,84.68
2017-06-10T06:41:07.411Z,84.67
2017-06-10T06:42:08.138Z,84.06
2017-06-10T06:43:07.782Z,83.79
2017-06-10T06:44:07.386Z,83.93
2017-06-10T06:45:08.174Z,83.82
2017-06-10T06:46:07.686Z,84.13
2017-06-10T06:47:08.455Z,83.67
2017-06-10T06:48:08.000Z,83.80
2017-06-10T06:49:07.708Z,83.79
2017-06-10T06:50:07.526Z,83.62
2017-06-10T06:51:08.214Z,83.71
2017-06-10T06:52:07.843Z,83.67
2017-06-10T06:53:07.516Z,83.19
2017-06-10T06:54:08.221Z,83.30
2017-06-10T06:55:07.801Z,83.62
2017-06-10T06:56:07.393Z,83.75
2017-06-10T06:57:08.113Z,84.22
2017-06-10T06:58:07.665Z,82.80
2017-06-10T06:59:08.331Z,82.74
2017-06-10T07:00:08.041Z,82.91
2017-06-10T07:01:07.644Z,83.13
2017-06-10T07:02:08.316Z,83.03
2017-06-10T07:03:07.907Z,82.62
2017-06-10T07:04:07.581Z,82.84
2017-06-10T07:05:08.305Z,82.68
2017-06-10T07:06:07.914Z,82.27
2017-06-10T07:07:07.600Z,82.23
2017-06-10T07:08:08.237Z,82.26
2017-06-10T07:09:07.895Z,82.54
2017-06-10T07:10:07.592Z,82.22
2017-06-10T07:11:08.261Z,82.44
2017-06-10T07:12:07.924Z,82.16
2017-06-10T07:13:07.543Z,81.77
2017-06-10T07:14:08.195Z,81.54
2017-06-10T07:15:07.835Z,80.55
2017-06-10T07:16:07.543Z,81.04
2017-06-10T07:17:08.293Z,80.96
2017-06-10T07:18:07.959Z,80.96
2017-06-10T07:19:07.604Z,80.41
2017-06-10T07:20:07.472Z,80.52
2017-06-10T07:21:08.046Z,79.08
2017-06-10T07:22:07.807Z,78.86
2017-06-10T07:23:07.404Z,78.90
2017-06-10T07:24:08.072Z,78.88
2017-06-10T07:25:07.700Z,79.21
2017-06-10T07:26:07.408Z,78.07
2017-06-10T07:27:08.156Z,77.61
2017-06-10T07:28:08.907Z,77.18
2017-06-10T07:29:07.444Z,77.73
2017-06-10T07:30:08.046Z,77.98
2017-06-10T07:31:07.772Z,76.92
2017-06-10T07:32:07.481Z,76.68
2017-06-10T07:33:08.093Z,75.85
2017-06-10T07:34:07.771Z,75.54
2017-06-10T07:35:07.417Z,75.40
2017-06-10T07:36:23.648Z,75.37
2017-06-10T07:37:08.146Z,77.34
2017-06-10T07:38:07.751Z,77.52
2017-06-10T07:39:07.443Z,77.59
2017-06-10T07:40:08.075Z,77.53
2017-06-10T07:41:07.718Z,76.75
2017-06-10T07:42:07.426Z,76.28
2017-06-10T07:43:08.087Z,76.44
2017-06-10T07:44:07.694Z,76.53
2017-06-10T07:45:07.412Z,75.74
2017-06-10T07:46:08.106Z,74.17
2017-06-10T07:47:07.717Z,74.01
2017-06-10T07:48:07.462Z,73.99
2017-06-10T07:49:08.075Z,71.89
2017-06-10T07:50:07.824Z,70.94
2017-06-10T07:51:07.469Z,71.55
2017-06-10T07:52:08.181Z,72.07
2017-06-10T07:53:07.836Z,70.90
2017-06-10T07:54:07.444Z,68.71
2017-06-10T07:55:08.117Z,67.76
2017-06-10T07:56:07.777Z,68.93
2017-06-10T07:57:07.406Z,70.07
2017-06-10T07:58:08.107Z,68.67
2017-06-10T07:59:07.674Z,69.51
2017-06-10T08:00:08.363Z,69.90
2017-06-10T08:01:08.068Z,69.97
2017-06-10T08:02:07.641Z,69.27
2017-06-10T08:03:08.328Z,69.60
2017-06-10T08:04:07.902Z,69.79
2017-06-10T08:05:07.593Z,68.91
2017-06-10T08:06:08.225Z,68.80
2017-06-10T08:07:07.903Z,67.29
2017-06-10T08:08:07.635Z,68.41
2017-06-10T08:09:08.262Z,67.53
2017-06-10T08:10:07.888Z,67.90
2017-06-10T08:11:07.615Z,68.51
2017-06-10T08:12:08.247Z,69.02
2017-06-10T08:13:07.930Z,69.23
2017-06-10T08:14:07.522Z,67.84
2017-06-10T08:15:08.234Z,67.08
2017-06-10T08:16:23.439Z,68.12
2017-06-10T08:20:08.115Z,66.02
2017-06-10T08:21:08.817Z,64.27
2017-06-10T08:24:07.884Z,64.10
2017-06-10T08:26:07.839Z,65.14
2017-06-10T08:29:09.046Z,66.42
2017-06-10T08:30:08.813Z,66.90
2017-06-10T08:33:09.311Z,65.42
2017-06-10T08:34:07.964Z,65.93
2017-06-10T08:35:07.624Z,64.56
2017-06-10T08:36:07.861Z,64.88
2017-06-10T08:37:08.582Z,64.83
2017-06-10T08:38:08.194Z,64.15
2017-06-10T08:40:09.342Z,64.07
2017-06-10T08:41:08.035Z,64.00
2017-06-10T08:42:08.774Z,61.79
2017-06-10T08:43:09.472Z,62.72
2017-06-10T08:44:09.131Z,63.13
2017-06-10T08:45:08.791Z,62.79
2017-06-10T08:46:09.432Z,63.37
2017-06-10T08:47:09.092Z,61.96
2017-06-10T08:49:07.809Z,61.23
2017-06-10T08:53:07.848Z,63.64
2017-06-10T08:54:07.534Z,63.98
2017-06-10T08:55:08.198Z,64.07
2017-06-10T08:56:08.930Z,63.26
2017-06-10T08:57:08.563Z,63.65
2017-06-10T08:58:09.254Z,62.36
2017-06-10T08:59:08.952Z,62.06
2017-06-10T09:00:08.540Z,62.12
2017-06-10T09:01:08.299Z,62.55
2017-06-10T09:02:08.898Z,62.36
2017-06-10T09:04:07.684Z,64.02
2017-06-10T09:05:09.401Z,63.23
2017-06-10T09:06:09.119Z,63.44
2017-06-10T09:07:08.724Z,63.12
2017-06-10T09:08:08.316Z,63.15
2017-06-10T09:09:07.954Z,62.98
2017-06-10T09:10:08.736Z,63.22
2017-06-10T09:11:08.273Z,60.30
2017-06-10T09:12:07.989Z,61.26
2017-06-10T09:13:07.642Z,61.85
2017-06-10T09:15:08.463Z,60.20
2017-06-10T09:16:09.133Z,58.68
2017-06-10T09:17:07.756Z,60.15
2017-06-10T09:18:08.548Z,61.90
2017-06-10T09:19:08.168Z,61.12
2017-06-10T09:20:08.911Z,60.67
2017-06-10T09:21:07.405Z,61.01
2017-06-10T09:22:08.069Z,60.60
2017-06-10T09:23:07.737Z,60.69
2017-06-10T09:24:08.348Z,60.41
2017-06-10T09:25:08.021Z,59.96
2017-06-10T09:26:07.719Z,60.87
2017-06-10T09:27:08.330Z,60.85
2017-06-10T09:28:07.957Z,61.96
2017-06-10T09:29:07.650Z,63.01
2017-06-10T09:30:08.310Z,62.34
2017-06-10T09:31:08.035Z,61.79
2017-06-10T09:32:07.633Z,60.02
2017-06-10T09:33:08.255Z,60.74
2017-06-10T09:34:07.959Z,61.22
2017-06-10T09:35:07.596Z,61.30
2017-06-10T09:36:08.279Z,61.21
2017-06-10T09:37:07.859Z,60.84
2017-06-10T09:38:07.524Z,59.87
2017-06-10T09:39:08.195Z,59.57
2017-06-10T09:40:07.826Z,60.14
2017-06-10T09:41:07.539Z,60.85
2017-06-10T09:42:08.143Z,59.60
2017-06-10T09:43:07.759Z,58.47
2017-06-10T09:44:07.529Z,58.93
2017-06-10T09:45:08.078Z,59.20
2017-06-10T09:46:07.811Z,57.76
2017-06-10T09:47:07.443Z,56.80
2017-06-10T09:48:08.059Z,56.06
2017-06-10T09:49:07.780Z,57.36
2017-06-10T09:50:08.421Z,58.20
2017-06-10T09:51:08.129Z,58.44
2017-06-10T09:52:07.666Z,59.22
2017-06-10T09:53:08.393Z,60.34
2017-06-10T09:54:08.038Z,60.86
2017-06-10T09:55:07.673Z,61.43
2017-06-10T09:56:18.867Z,61.64
2017-06-10T09:57:08.008Z,61.40
2017-06-10T09:58:07.628Z,61.54
2017-06-10T09:59:08.279Z,62.70
2017-06-10T10:00:07.948Z,62.57
2017-06-10T10:01:07.641Z,62.12
2017-06-10T10:02:08.311Z,62.56
2017-06-10T10:03:07.935Z,62.51
2017-06-10T10:04:07.627Z,61.74
2017-06-10T10:05:08.191Z,61.17
2017-06-10T10:06:07.881Z,60.13
2017-06-10T10:07:07.662Z,59.78
2017-06-10T10:08:08.214Z,60.25
2017-06-10T10:09:07.933Z,60.68
2017-06-10T10:10:07.557Z,60.76
2017-06-10T10:11:08.138Z,60.81
2017-06-10T10:12:07.808Z,61.32
2017-06-10T10:13:07.457Z,61.13
2017-06-10T10:14:08.173Z,60.11
2017-06-10T10:15:07.751Z,58.28
2017-06-10T10:16:08.400Z,57.97
2017-06-10T10:17:08.129Z,56.40
2017-06-10T10:18:07.804Z,56.48
2017-06-10T10:19:07.561Z,53.97
2017-06-10T10:20:08.209Z,55.52
2017-06-10T10:21:07.826Z,55.93
2017-06-10T10:22:07.545Z,56.21
2017-06-10T10:23:08.161Z,56.18
2017-06-10T10:24:07.876Z,56.20
2017-06-10T10:25:07.463Z,57.47
2017-06-10T10:26:08.094Z,57.16
2017-06-10T10:27:07.894Z,57.75
2017-06-10T10:28:07.457Z,57.81
2017-06-10T10:29:08.177Z,57.75
2017-06-10T10:30:07.797Z,58.73
2017-06-10T10:31:07.437Z,58.80
2017-06-10T10:32:08.131Z,56.92
2017-06-10T10:33:07.768Z,55.96
2017-06-10T10:34:07.499Z,56.03
2017-06-10T10:35:08.056Z,56.70
2017-06-10T10:36:07.756Z,56.31
2017-06-10T10:37:17.963Z,54.86
2017-06-10T10:38:08.109Z,54.18
2017-06-10T10:39:07.778Z,54.81
2017-06-10T10:40:07.449Z,55.47
2017-06-10T10:41:08.098Z,55.28
2017-06-10T10:42:07.708Z,55.21
2017-06-10T10:43:08.319Z,55.26
2017-06-10T10:44:08.115Z,55.56
2017-06-10T10:45:07.707Z,55.03
2017-06-10T10:46:08.321Z,53.69
2017-06-10T10:47:08.220Z,53.90
2017-06-10T10:48:07.653Z,54.22
2017-06-10T10:49:08.369Z,53.53
2017-06-10T10:50:08.004Z,54.55
2017-06-10T10:51:07.610Z,55.10
2017-06-10T10:52:08.287Z,53.74
2017-06-10T10:53:07.951Z,55.71
2017-06-10T10:54:07.674Z,55.13
2017-06-10T10:55:08.328Z,54.93
2017-06-10T10:56:07.968Z,55.58
2017-06-10T10:57:07.635Z,55.86
2017-06-10T10:58:08.262Z,55.32
2017-06-10T10:59:08.471Z,55.11
2017-06-10T11:00:08.735Z,55.12
2017-06-10T11:01:08.241Z,54.43
2017-06-10T11:02:07.848Z,54.97
2017-06-10T11:03:07.602Z,54.54
2017-06-10T11:04:08.269Z,54.32
2017-06-10T11:05:07.877Z,54.66
2017-06-10T11:06:07.559Z,55.06
2017-06-10T11:07:08.155Z,54.95
2017-06-10T11:08:07.796Z,55.28
2017-06-10T11:09:08.678Z,53.90
2017-06-10T11:10:08.065Z,54.38
2017-06-10T11:11:07.809Z,52.11
2017-06-10T11:12:08.396Z,52.68
2017-06-10T11:13:08.054Z,54.02
2017-06-10T11:14:07.771Z,53.57
2017-06-10T11:15:08.371Z,53.37
2017-06-10T11:16:08.048Z,54.36
2017-06-10T11:17:07.694Z,50.64
2017-06-10T11:18:07.471Z,51.09
2017-06-10T11:19:08.228Z,52.43
2017-06-10T11:20:07.876Z,49.82
2017-06-10T11:21:07.483Z,51.25
2017-06-10T11:22:08.087Z,52.89
2017-06-10T11:23:07.756Z,53.12
2017-06-10T11:24:08.494Z,52.74
2017-06-10T11:25:08.061Z,52.44
2017-06-10T11:26:07.774Z,51.11
2017-06-10T11:27:08.352Z,52.06
2017-06-10T11:28:08.071Z,52.04
2017-06-10T11:29:07.702Z,52.63
2017-06-10T11:30:08.480Z,52.92
2017-06-10T11:31:07.997Z,52.46
2017-06-10T11:32:07.603Z,52.87
2017-06-10T11:33:08.285Z,50.43
2017-06-10T11:34:07.913Z,51.37
2017-06-10T11:35:07.537Z,51.59
2017-06-10T11:36:08.294Z,52.34
2017-06-10T11:37:07.804Z,53.10
2017-06-10T11:38:07.506Z,52.18
2017-06-10T11:39:08.105Z,52.78
2017-06-10T11:40:07.775Z,53.61
2017-06-10T11:41:07.450Z,52.69
2017-06-10T11:42:08.076Z,52.88
2017-06-10T11:43:07.735Z,53.28
2017-06-10T11:44:08.542Z,52.42
2017-06-10T11:45:08.030Z,51.50
2017-06-10T11:46:08.208Z,50.99
2017-06-10T11:47:07.775Z,52.24
2017-06-10T11:48:07.425Z,52.67
2017-06-10T11:49:08.148Z,52.36
2017-06-10T11:50:07.883Z,52.43
2017-06-10T11:51:07.591Z,52.48
2017-06-10T11:52:08.183Z,52.87
2017-06-10T11:53:07.846Z,54.12
2017-06-10T11:54:07.531Z,54.54
2017-06-10T11:55:08.203Z,55.01
2017-06-10T11:56:07.951Z,53.96
2017-06-10T11:57:07.531Z,52.01
2017-06-10T11:58:08.203Z,52.43
2017-06-10T11:59:07.801Z,52.30
2017-06-10T12:00:07.415Z,52.62
2017-06-10T12:01:08.234Z,52.96
2017-06-10T12:02:07.776Z,53.18
2017-06-10T12:03:07.426Z,54.49
2017-06-10T12:04:08.118Z,55.91
2017-06-10T12:05:07.790Z,52.70
2017-06-10T12:06:07.489Z,52.15
2017-06-10T12:07:08.109Z,51.52
2017-06-10T12:08:07.736Z,50.33
2017-06-10T12:09:08.360Z,51.88
2017-06-10T12:10:08.012Z,53.88
2017-06-10T12:11:07.705Z,54.40
2017-06-10T12:12:08.329Z,52.74
2017-06-10T12:13:08.038Z,51.86
2017-06-10T12:14:08.835Z,49.95
2017-06-10T12:15:08.316Z,49.46
2017-06-10T12:16:08.071Z,49.95
2017-06-10T12:18:08.143Z,48.22
2017-06-10T12:19:18.395Z,48.48
2017-06-10T12:20:07.559Z,47.76
2017-06-10T12:21:08.195Z,46.78
2017-06-10T12:22:07.817Z,47.92
2017-06-10T12:23:07.583Z,48.81
2017-06-10T12:24:08.094Z,48.31
2017-06-10T12:25:07.844Z,48.54
2017-06-10T12:26:07.548Z,48.59
2017-06-10T12:27:08.151Z,47.44
2017-06-10T12:29:18.717Z,47.93
2017-06-10T12:30:08.710Z,47.94
2017-06-10T12:31:09.384Z,49.75
2017-06-10T12:32:09.029Z,49.24
2017-06-10T12:33:07.618Z,49.68
2017-06-10T12:34:08.330Z,50.01
2017-06-10T12:35:07.880Z,49.88
2017-06-10T12:37:07.702Z,49.93
2017-06-10T12:41:07.595Z,51.81
2017-06-10T12:42:08.347Z,53.02
2017-06-10T12:51:09.356Z,50.39
2017-06-10T12:52:16.489Z,50.84
2017-06-10T12:54:18.063Z,51.00
2017-06-10T12:55:08.299Z,50.80
2017-06-10T12:56:10.195Z,51.65
2017-06-10T12:57:17.247Z,49.41
2017-06-10T12:58:08.333Z,48.57
2017-06-10T12:59:07.964Z,49.84
2017-06-10T13:00:07.604Z,51.01
2017-06-10T13:01:08.327Z,47.53
2017-06-10T13:02:07.964Z,46.19
2017-06-10T13:08:15.799Z,45.09
2017-06-10T13:09:19.330Z,45.87
2017-06-10T13:10:09.511Z,45.17
2017-06-10T13:11:07.595Z,44.57
2017-06-10T13:12:09.354Z,43.99
2017-06-10T13:14:16.615Z,43.72
2017-06-10T13:14:18.180Z,43.85
2017-06-10T13:15:09.339Z,43.45
2017-06-10T13:16:07.905Z,42.50
2017-06-10T13:17:15.284Z,41.80
2017-06-10T13:18:07.466Z,40.56
2017-06-10T13:19:08.238Z,40.63
2017-06-10T13:20:15.367Z,39.68
2017-06-10T13:21:17.119Z,39.42
2017-06-10T13:22:08.055Z,38.10
2017-06-10T13:23:24.620Z,37.43
2017-06-10T13:24:18.871Z,38.16
2017-06-10T13:25:17.379Z,38.34
2017-06-10T13:26:17.971Z,39.33
2017-06-10T13:27:23.262Z,41.83
2017-06-10T13:28:07.764Z,43.80
2017-06-10T13:29:07.386Z,44.47